Time;durP1;ratioP1;P1;durP2;ratioP2;P2;SDS_P1;SDS_P2;PMS_P1;PMS_P2;Temp;Humidity;BMP_temperature;BMP_pressure;BME280_temperature;BME280_humidity;BME280_pressure;Samples;Min_cycle;Max_cycle;Signal;HPM_P1;HPM_P2
2023/01/03 00:02:21;;;;;;;5.00;2.90;;;9.60;99.90;;;;;;5133811;27;20486;-61
2023/01/03 00:04:48;;;;;;;6.07;3.30;;;9.60;99.90;;;;;;5134811;27;20467;-61
2023/01/03 00:07:32;;;;;;;4.47;3.27;;;9.50;99.90;;;;;;5134640;28;20510;-61
2023/01/03 00:09:59;;;;;;;7.40;3.70;;;9.40;99.90;;;;;;5134882;27;20493;-61
2023/01/03 00:12:26;;;;;;;3.83;3.30;;;9.30;99.90;;;;;;5134858;28;20555;-61
2023/01/03 00:14:52;;;;;;;8.83;3.03;;;9.30;99.90;;;;;;5134502;28;20453;-61
2023/01/03 00:17:19;;;;;;;7.73;3.73;;;9.30;99.90;;;;;;5135132;28;20433;-61
2023/01/03 00:19:46;;;;;;;6.67;3.90;;;9.30;99.90;;;;;;5134839;28;20450;-61
2023/01/03 00:22:14;;;;;;;7.00;3.30;;;9.30;99.90;;;;;;5134560;28;20489;-61
2023/01/03 00:24:41;;;;;;;7.97;3.60;;;9.20;99.90;;;;;;5134726;28;20457;-61
2023/01/03 00:27:08;;;;;;;6.93;3.83;;;9.20;99.90;;;;;;5134785;28;20449;-61
2023/01/03 00:29:36;;;;;;;5.53;4.10;;;9.10;99.90;;;;;;5134562;28;20458;-61
2023/01/03 00:32:04;;;;;;;5.37;3.70;;;9.10;99.90;;;;;;5134566;27;20479;-61
2023/01/03 00:34:30;;;;;;;12.67;4.53;;;9.00;99.90;;;;;;5134593;28;20459;-61
2023/01/03 00:36:57;;;;;;;6.40;3.70;;;9.00;99.90;;;;;;5134947;28;20446;-61
2023/01/03 00:39:24;;;;;;;6.60;4.00;;;8.90;99.90;;;;;;5135021;28;20460;-61
2023/01/03 00:41:51;;;;;;;6.60;3.80;;;8.80;99.90;;;;;;5134998;28;20488;-61
2023/01/03 00:44:18;;;;;;;9.60;4.20;;;8.80;99.90;;;;;;5134947;28;20451;-61
2023/01/03 00:46:46;;;;;;;4.33;3.83;;;8.80;99.90;;;;;;5135484;28;20951;-61
2023/01/03 00:49:13;;;;;;;5.43;3.70;;;8.80;99.90;;;;;;5135629;28;20431;-61
2023/01/03 00:51:41;;;;;;;5.63;3.87;;;8.80;99.90;;;;;;5135854;28;20462;-61
2023/01/03 00:54:10;;;;;;;4.67;4.17;;;8.80;99.90;;;;;;5136753;28;20507;-61
2023/01/03 00:56:39;;;;;;;7.80;4.43;;;8.80;99.90;;;;;;5137114;28;20456;-61
2023/01/03 00:59:06;;;;;;;5.77;4.47;;;8.80;99.90;;;;;;5137615;28;20445;-61
2023/01/03 01:01:35;;;;;;;8.33;5.97;;;8.80;99.90;;;;;;5137301;27;20492;-61
2023/01/03 01:04:08;;;;;;;5.70;4.30;;;8.80;99.90;;;;;;5135740;28;20964;-61
2023/01/03 01:06:38;;;;;;;6.47;4.17;;;8.80;99.90;;;;;;5135627;28;20499;-61
2023/01/03 01:09:06;;;;;;;8.10;4.30;;;8.90;99.90;;;;;;5135729;28;20449;-61
2023/01/03 01:11:34;;;;;;;5.70;3.63;;;8.90;99.90;;;;;;5135362;27;20824;-62
2023/01/03 01:14:01;;;;;;;8.23;4.20;;;9.00;99.90;;;;;;5138382;27;20441;-61
2023/01/03 01:16:31;;;;;;;8.30;4.90;;;9.00;99.90;;;;;;5138595;27;20445;-61
2023/01/03 01:18:59;;;;;;;6.47;4.83;;;9.00;99.90;;;;;;5139156;27;20794;-62
2023/01/03 01:21:30;;;;;;;5.03;4.17;;;9.00;99.90;;;;;;5138619;27;20492;-61
2023/01/03 01:23:57;;;;;;;5.87;4.77;;;9.00;99.90;;;;;;5138298;27;20451;-62
2023/01/03 01:26:25;;;;;;;10.77;5.10;;;9.00;99.90;;;;;;5137953;27;20464;-62
2023/01/03 01:28:53;;;;;;;7.93;4.60;;;9.00;99.90;;;;;;5138283;27;20434;-61
2023/01/03 01:31:23;;;;;;;5.70;4.10;;;9.00;99.90;;;;;;5138286;27;20465;-62
2023/01/03 01:33:50;;;;;;;6.70;4.10;;;9.00;99.90;;;;;;5137844;27;20957;-61
2023/01/03 01:36:20;;;;;;;14.03;4.80;;;9.00;99.90;;;;;;5137416;27;21060;-61
2023/01/03 01:38:52;;;;;;;5.40;4.10;;;9.00;99.90;;;;;;5137239;27;20944;-61
2023/01/03 01:44:36;;;;;;;7.50;4.17;;;8.90;99.90;;;;;;5136977;27;20551;-62
2023/01/03 01:44:38;;;;;;;6.93;4.00;;;8.90;99.90;;;;;;5136843;27;20429;-62
2023/01/03 01:47:05;;;;;;;5.50;4.30;;;8.90;99.90;;;;;;5137188;27;20439;-61
2023/01/03 01:49:32;;;;;;;7.80;4.40;;;8.80;99.90;;;;;;5136892;27;20858;-62
2023/01/03 01:51:59;;;;;;;6.27;4.67;;;8.80;99.90;;;;;;5137069;27;20473;-61
2023/01/03 01:54:27;;;;;;;8.03;4.23;;;8.80;99.90;;;;;;5136611;27;20457;-61
2023/01/03 01:56:53;;;;;;;7.73;4.27;;;8.80;99.90;;;;;;5136943;27;20453;-61
2023/01/03 01:59:20;;;;;;;8.67;4.27;;;8.90;99.90;;;;;;5136749;27;20532;-61
2023/01/03 02:01:49;;;;;;;9.20;4.10;;;8.90;99.90;;;;;;5136807;27;20488;-61
2023/01/03 02:04:20;;;;;;;9.97;4.20;;;8.90;99.90;;;;;;5136835;27;20961;-62
2023/01/03 02:06:47;;;;;;;9.17;4.47;;;8.90;99.90;;;;;;5136394;27;20913;-61
2023/01/03 02:09:14;;;;;;;7.67;4.40;;;8.90;99.90;;;;;;5136668;27;20452;-61
2023/01/03 02:13:04;;;;;;;6.30;4.40;;;9.00;99.90;;;;;;5136545;27;20565;-61
2023/01/03 02:14:55;;;;;;;16.00;5.27;;;9.00;99.90;;;;;;5136100;27;20440;-62
2023/01/03 02:17:34;;;;;;;6.13;3.37;;;8.90;99.90;;;;;;5136681;27;20438;-61
2023/01/03 02:20:28;;;;;;;8.20;4.70;;;8.90;99.90;;;;;;5136447;27;20517;-61
2023/01/03 02:23:29;;;;;;;7.80;4.50;;;8.90;99.90;;;;;;5136245;27;20903;-61
2023/01/03 02:26:26;;;;;;;5.67;4.03;;;8.90;99.90;;;;;;5135876;27;20448;-61
2023/01/03 02:29:37;;;;;;;4.77;3.97;;;8.80;99.90;;;;;;5136030;27;20945;-61
2023/01/03 02:32:12;;;;;;;11.77;5.03;;;8.80;99.90;;;;;;5100290;27;20461;-61
2023/01/03 02:34:45;;;;;;;10.03;4.87;;;8.80;99.90;;;;;;5136158;27;20440;-62
2023/01/03 02:37:19;;;;;;;10.00;5.00;;;8.80;99.90;;;;;;5136149;27;20431;-62
2023/01/03 02:39:52;;;;;;;9.30;4.97;;;8.80;99.90;;;;;;5135794;27;20449;-61
2023/01/03 02:45:15;;;;;;;9.23;4.70;;;8.70;99.90;;;;;;5136236;27;20406;-61
2023/01/03 02:47:49;;;;;;;8.83;4.67;;;8.70;99.90;;;;;;5136069;27;20437;-61
2023/01/03 02:50:16;;;;;;;10.80;5.50;;;8.70;99.90;;;;;;5135599;27;20908;-62
2023/01/03 02:52:45;;;;;;;6.97;4.57;;;8.70;99.90;;;;;;5135620;27;20477;-61
2023/01/03 02:55:16;;;;;;;6.83;4.50;;;8.70;99.90;;;;;;5135790;27;20455;-61
2023/01/03 02:57:49;;;;;;;10.77;4.27;;;8.70;99.90;;;;;;5135707;27;20450;-61
2023/01/03 03:00:20;;;;;;;9.47;3.60;;;8.60;99.80;;;;;;5135457;27;20828;-62
2023/01/03 03:02:53;;;;;;;7.00;4.07;;;8.60;99.80;;;;;;5135622;27;20488;-62
2023/01/03 03:05:25;;;;;;;9.53;4.50;;;8.60;99.90;;;;;;5135395;27;20435;-61
2023/01/03 03:07:52;;;;;;;8.10;3.70;;;8.50;99.90;;;;;;5135661;27;20442;-61
2023/01/03 03:13:15;;;;;;;12.03;3.63;;;8.50;99.90;;;;;;5135301;27;20431;-61
2023/01/03 03:15:49;;;;;;;6.83;3.47;;;8.50;99.90;;;;;;5135407;27;20425;-61
2023/01/03 03:18:21;;;;;;;8.70;3.20;;;8.50;99.90;;;;;;5135099;27;20904;-61
2023/01/03 03:26:25;;;;;;;5.93;3.23;;;8.40;99.70;;;;;;5135208;27;20903;-62
2023/01/03 03:28:57;;;;;;;11.57;3.63;;;8.40;99.80;;;;;;5135217;27;20787;-61
2023/01/03 03:31:31;;;;;;;15.80;3.90;;;8.30;99.80;;;;;;5135003;27;20468;-61
2023/01/03 03:34:04;;;;;;;7.97;4.13;;;8.30;99.90;;;;;;5135060;27;20429;-62
2023/01/03 03:36:40;;;;;;;10.37;3.77;;;8.30;99.90;;;;;;5134130;27;20428;-61
2023/01/03 03:44:59;;;;;;;12.30;4.13;;;8.30;99.90;;;;;;5134829;27;20439;-61
2023/01/03 03:45:01;;;;;;;15.07;4.60;;;8.20;99.90;;;;;;5135193;27;20941;-61
2023/01/03 03:47:34;;;;;;;12.47;5.10;;;8.10;99.90;;;;;;5135031;27;20436;-62
2023/01/03 03:50:06;;;;;;;12.80;3.90;;;8.10;99.90;;;;;;5135089;27;20423;-61
2023/01/03 03:52:35;;;;;;;9.80;4.10;;;8.10;99.90;;;;;;5134843;27;20463;-61
2023/01/03 03:55:07;;;;;;;11.20;5.33;;;8.10;99.90;;;;;;5134533;27;20810;-61
2023/01/03 03:57:39;;;;;;;17.47;5.00;;;8.10;99.90;;;;;;5134674;27;20434;-61
2023/01/03 04:00:11;;;;;;;9.33;4.40;;;8.10;99.90;;;;;;5134767;27;20443;-61
2023/01/03 04:02:39;;;;;;;10.70;4.50;;;8.10;99.90;;;;;;5134584;27;20559;-61
2023/01/03 04:05:10;;;;;;;9.63;2.90;;;8.10;99.90;;;;;;5134511;27;20453;-62
2023/01/03 04:07:38;;;;;;;11.10;4.17;;;8.10;99.90;;;;;;5134620;27;20424;-61
2023/01/03 04:10:06;;;;;;;9.73;3.90;;;8.10;99.90;;;;;;5134212;27;20989;-61
2023/01/03 04:12:33;;;;;;;11.30;3.90;;;8.10;99.90;;;;;;5134402;27;20465;-62
2023/01/03 04:14:59;;;;;;;12.87;3.77;;;8.10;99.90;;;;;;5135338;28;20439;-61
2023/01/03 04:17:26;;;;;;;6.90;3.23;;;8.10;99.90;;;;;;5134438;28;20448;-62
2023/01/03 04:19:53;;;;;;;5.80;3.70;;;8.10;99.90;;;;;;5134401;28;20453;-62
2023/01/03 04:22:21;;;;;;;12.10;4.00;;;8.10;99.90;;;;;;5134025;28;21012;-62
2023/01/03 04:24:47;;;;;;;8.87;5.13;;;8.10;99.90;;;;;;5134508;28;20445;-62
2023/01/03 04:27:14;;;;;;;9.40;7.00;;;8.10;99.90;;;;;;5134115;28;20865;-62
2023/01/03 04:29:41;;;;;;;11.77;7.80;;;8.10;99.90;;;;;;5134196;28;20452;-62
2023/01/03 04:32:08;;;;;;;9.57;5.33;;;8.10;99.90;;;;;;5134192;28;20484;-62
2023/01/03 04:34:35;;;;;;;9.73;6.60;;;8.10;99.90;;;;;;5134902;28;21024;-62
2023/01/03 04:37:02;;;;;;;7.23;5.90;;;8.10;99.90;;;;;;5134332;28;20455;-61
2023/01/03 04:39:30;;;;;;;7.40;5.53;;;8.10;99.90;;;;;;5134079;28;20885;-62
2023/01/03 04:41:57;;;;;;;7.10;4.47;;;8.10;99.90;;;;;;5134103;28;20480;-61
2023/01/03 04:44:22;;;;;;;4.20;3.80;;;8.10;99.90;;;;;;5134344;28;20447;-62
2023/01/03 04:46:49;;;;;;;8.33;4.60;;;8.10;99.90;;;;;;5134194;27;20451;-62
2023/01/03 04:49:16;;;;;;;5.63;4.10;;;8.10;99.90;;;;;;5137854;27;20674;-62
2023/01/03 04:51:42;;;;;;;6.27;3.77;;;8.10;99.90;;;;;;5138092;27;20482;-61
2023/01/03 04:54:09;;;;;;;7.03;4.00;;;8.10;99.90;;;;;;5137779;27;20980;-62
2023/01/03 04:56:38;;;;;;;6.00;3.97;;;8.10;99.80;;;;;;5138152;27;20452;-62
2023/01/03 04:59:05;;;;;;;8.80;4.40;;;8.00;99.60;;;;;;5137654;27;20456;-61
2023/01/03 05:01:31;;;;;;;8.03;3.60;;;8.10;99.60;;;;;;5137943;27;20472;-61
2023/01/03 05:04:00;;;;;;;5.03;3.80;;;8.00;99.50;;;;;;5137978;27;20483;-61
2023/01/03 05:06:28;;;;;;;7.80;3.70;;;8.00;99.40;;;;;;5137967;27;20457;-62
2023/01/03 05:08:55;;;;;;;7.97;3.30;;;8.00;99.40;;;;;;5137353;27;20970;-62
2023/01/03 05:11:22;;;;;;;11.97;4.17;;;8.00;99.40;;;;;;5137823;27;20460;-61
2023/01/03 05:13:50;;;;;;;8.93;3.60;;;7.90;99.30;;;;;;5137875;27;20809;-62
2023/01/03 05:16:17;;;;;;;8.03;3.30;;;7.90;99.20;;;;;;5137771;27;20449;-62
2023/01/03 05:18:43;;;;;;;6.83;3.73;;;7.90;99.20;;;;;;5137695;27;20462;-62
2023/01/03 05:26:42;;;;;;;6.60;4.10;;;7.80;99.00;;;;;;5137878;27;20759;-62
2023/01/03 05:29:12;;;;;;;11.33;3.70;;;7.80;99.00;;;;;;5137477;27;20468;-62
2023/01/03 05:31:39;;;;;;;7.10;3.60;;;7.80;99.00;;;;;;5137570;27;20466;-62
2023/01/03 05:34:06;;;;;;;5.43;4.10;;;7.80;99.10;;;;;;5137465;27;20424;-62
2023/01/03 05:36:32;;;;;;;7.70;4.60;;;7.70;99.20;;;;;;5137408;27;20448;-62
2023/01/03 05:38:59;;;;;;;10.33;4.80;;;7.70;99.30;;;;;;5137283;27;20443;-62
2023/01/03 05:44:11;;;;;;;6.23;4.50;;;7.70;99.40;;;;;;5137266;27;20502;-62
2023/01/03 05:46:38;;;;;;;8.37;3.90;;;7.70;99.60;;;;;;5137514;27;20449;-62
2023/01/03 05:49:05;;;;;;;16.60;4.77;;;7.70;99.60;;;;;;5137696;27;20446;-61
2023/01/03 05:51:32;;;;;;;10.00;5.00;;;7.70;99.70;;;;;;5138479;27;20480;-61
2023/01/03 05:53:59;;;;;;;5.53;3.93;;;7.70;99.50;;;;;;5137020;27;20440;-61
2023/01/03 05:56:26;;;;;;;8.37;4.27;;;7.70;99.40;;;;;;5137396;27;20902;-62
2023/01/03 05:58:52;;;;;;;7.73;3.63;;;7.60;99.20;;;;;;5136483;27;20447;-61
2023/01/03 06:01:20;;;;;;;7.10;3.60;;;7.60;99.20;;;;;;5137166;27;20471;-62
2023/01/03 06:03:48;;;;;;;7.10;4.00;;;7.60;99.10;;;;;;5137104;27;20849;-61
2023/01/03 06:06:16;;;;;;;8.10;4.67;;;7.60;99.10;;;;;;5137425;27;20446;-61
2023/01/03 06:08:43;;;;;;;5.53;3.40;;;7.60;98.80;;;;;;5137212;27;20447;-61
2023/01/03 06:11:11;;;;;;;7.13;4.40;;;7.50;98.80;;;;;;5137665;27;20463;-62
2023/01/03 06:13:39;;;;;;;5.53;4.97;;;7.50;98.80;;;;;;5137067;27;20438;-61
2023/01/03 06:18:53;;;;;;;7.80;5.40;;;7.50;98.60;;;;;;5137239;27;20398;-61
2023/01/03 06:21:20;;;;;;;8.47;4.07;;;7.50;98.70;;;;;;5137008;27;20466;-62
2023/01/03 06:23:47;;;;;;;7.37;4.40;;;7.50;98.80;;;;;;5136708;27;20474;-62
2023/01/03 06:26:14;;;;;;;8.30;4.93;;;7.40;99.40;;;;;;5136711;27;20451;-61
2023/01/03 06:28:41;;;;;;;6.90;4.63;;;7.40;99.80;;;;;;5136840;27;20447;-62
2023/01/03 06:31:09;;;;;;;6.37;4.27;;;7.40;99.90;;;;;;5136338;27;20473;-62
2023/01/03 06:33:36;;;;;;;5.83;4.10;;;7.40;99.90;;;;;;5136504;27;20434;-61
2023/01/03 06:36:05;;;;;;;8.63;4.20;;;7.50;99.90;;;;;;5136350;27;20954;-61
2023/01/03 06:38:32;;;;;;;8.40;4.40;;;7.50;99.90;;;;;;5136755;27;20482;-61
2023/01/03 06:40:59;;;;;;;6.73;4.63;;;7.50;99.90;;;;;;5135956;27;20486;-62
2023/01/03 06:43:26;;;;;;;5.63;4.03;;;7.50;99.90;;;;;;5136328;27;21004;-61
2023/01/03 06:54:13;;;;;;;4.83;4.20;;;7.70;99.90;;;;;;5136385;27;20401;-62
2023/01/03 06:56:40;;;;;;;4.70;3.63;;;7.70;99.90;;;;;;5136128;27;20443;-62
2023/01/03 06:59:07;;;;;;;7.87;4.27;;;7.70;99.90;;;;;;5135896;27;20937;-61
2023/01/03 07:01:33;;;;;;;9.87;4.47;;;7.70;99.90;;;;;;5135620;27;21009;-61
2023/01/03 07:04:01;;;;;;;6.90;3.80;;;7.80;99.90;;;;;;5136436;27;20495;-62
2023/01/03 07:06:29;;;;;;;5.33;3.97;;;7.80;99.90;;;;;;5136299;27;20446;-62
2023/01/03 07:08:56;;;;;;;5.17;3.60;;;7.80;99.90;;;;;;5136213;27;20464;-61
2023/01/03 07:11:23;;;;;;;7.97;3.60;;;7.90;99.90;;;;;;5136192;27;20470;-62
2023/01/03 07:13:58;;;;;;;8.53;4.00;;;7.90;99.90;;;;;;5136472;27;20430;-62
2023/01/03 07:16:26;;;;;;;12.50;4.27;;;7.90;99.90;;;;;;5136442;27;20419;-62
2023/01/03 07:18:53;;;;;;;5.60;4.30;;;7.90;99.90;;;;;;5136261;27;20439;-61
2023/01/03 07:21:20;;;;;;;4.47;4.00;;;7.90;99.90;;;;;;5136736;27;20474;-62
2023/01/03 07:23:48;;;;;;;6.10;3.97;;;7.90;99.90;;;;;;5136968;27;20477;-61
2023/01/03 07:26:15;;;;;;;8.17;3.67;;;7.90;99.90;;;;;;5136680;27;20447;-61
2023/01/03 07:28:42;;;;;;;6.13;4.30;;;7.90;99.90;;;;;;5137329;27;20453;-61
2023/01/03 07:31:08;;;;;;;3.50;3.20;;;7.90;99.90;;;;;;5136844;27;20474;-62
2023/01/03 07:33:37;;;;;;;4.70;3.23;;;7.90;99.90;;;;;;5137229;27;20462;-61
2023/01/03 07:36:06;;;;;;;6.17;3.63;;;7.90;99.90;;;;;;5137377;27;20531;-61
2023/01/03 07:38:33;;;;;;;6.73;3.27;;;7.90;99.90;;;;;;5137448;27;20427;-61
2023/01/03 07:41:02;;;;;;;4.70;3.30;;;7.90;99.90;;;;;;5138556;27;20482;-62
2023/01/03 07:43:37;;;;;;;6.63;3.50;;;7.90;99.90;;;;;;5139583;27;20466;-62
2023/01/03 07:46:09;;;;;;;5.60;3.93;;;7.90;99.90;;;;;;5136231;27;20423;-62
2023/01/03 07:48:37;;;;;;;6.73;3.57;;;7.90;99.90;;;;;;5135999;27;20450;-61
2023/01/03 07:51:05;;;;;;;5.47;3.83;;;7.90;99.90;;;;;;5135360;27;20476;-61
2023/01/03 07:53:32;;;;;;;4.30;3.23;;;7.90;99.90;;;;;;5135811;27;20448;-61
2023/01/03 07:56:05;;;;;;;4.60;3.43;;;7.90;99.90;;;;;;5135535;27;20439;-62
2023/01/03 07:58:32;;;;;;;9.33;4.10;;;7.90;99.90;;;;;;5135630;27;20446;-61
2023/01/03 08:01:06;;;;;;;5.40;3.70;;;7.90;99.90;;;;;;5135153;27;20462;-61
2023/01/03 08:03:33;;;;;;;4.47;3.73;;;7.90;99.90;;;;;;5134975;27;20475;-62
2023/01/03 08:06:01;;;;;;;5.50;4.10;;;7.90;99.90;;;;;;5134953;27;20913;-61
2023/01/03 08:08:28;;;;;;;5.63;4.33;;;7.90;99.90;;;;;;5135163;27;20438;-61
2023/01/03 08:13:41;;;;;;;5.97;3.80;;;8.00;99.90;;;;;;5135433;27;20453;-61
2023/01/03 08:16:10;;;;;;;6.40;4.20;;;8.00;99.90;;;;;;5134947;28;20432;-61
2023/01/03 08:18:38;;;;;;;3.37;3.07;;;8.00;99.90;;;;;;5134641;28;20946;-61
2023/01/03 08:21:05;;;;;;;6.90;3.80;;;8.00;99.90;;;;;;5134810;28;20808;-62
2023/01/03 08:23:32;;;;;;;4.50;4.07;;;8.00;99.90;;;;;;5137934;27;20470;-61
2023/01/03 08:26:01;;;;;;;7.23;3.70;;;8.00;99.90;;;;;;5139155;27;20496;-61
2023/01/03 08:28:27;;;;;;;5.50;3.60;;;8.10;99.90;;;;;;5139520;27;20424;-61
2023/01/03 08:30:56;;;;;;;5.13;4.13;;;8.10;99.90;;;;;;5139623;27;20467;-61
2023/01/03 08:33:24;;;;;;;8.27;4.57;;;8.10;99.90;;;;;;5139316;27;20423;-61
2023/01/03 08:35:55;;;;;;;4.63;4.23;;;8.10;99.90;;;;;;5139559;27;20435;-61
2023/01/03 08:38:26;;;;;;;7.30;3.83;;;8.10;99.90;;;;;;5139189;27;20432;-61
2023/01/03 08:40:54;;;;;;;4.83;3.70;;;8.20;99.90;;;;;;5138778;27;20529;-62
2023/01/03 08:43:21;;;;;;;4.73;3.80;;;8.20;99.90;;;;;;5139017;27;20474;-61
2023/01/03 08:45:48;;;;;;;5.87;4.77;;;8.30;99.90;;;;;;5139126;27;20473;-61
2023/01/03 08:48:19;;;;;;;4.70;4.27;;;8.30;99.90;;;;;;5139088;27;20444;-61
2023/01/03 08:50:46;;;;;;;4.70;4.20;;;8.30;99.90;;;;;;5138820;27;20443;-62
2023/01/03 08:53:12;;;;;;;5.07;3.70;;;8.30;99.90;;;;;;5138894;27;20433;-61
2023/01/03 08:55:39;;;;;;;4.53;3.73;;;8.40;99.90;;;;;;5138233;27;20979;-61
2023/01/03 08:58:08;;;;;;;6.50;3.83;;;8.50;99.90;;;;;;5138431;27;20450;-61
2023/01/03 09:00:36;;;;;;;4.47;4.07;;;8.50;99.90;;;;;;5138439;27;20541;-61
2023/01/03 09:03:03;;;;;;;5.10;4.33;;;8.50;99.90;;;;;;5138459;27;20448;-61
2023/01/03 09:05:31;;;;;;;6.23;3.87;;;8.50;99.90;;;;;;5138665;27;20456;-61
2023/01/03 09:07:57;;;;;;;5.77;3.50;;;8.60;99.90;;;;;;5139079;27;20459;-61
2023/01/03 09:10:25;;;;;;;4.10;3.70;;;8.60;99.90;;;;;;5138618;27;20444;-61
2023/01/03 09:12:52;;;;;;;7.70;4.13;;;8.70;99.90;;;;;;5138209;27;20498;-61
2023/01/03 09:15:19;;;;;;;8.87;4.53;;;8.70;99.90;;;;;;5138195;27;20445;-61
2023/01/03 09:17:48;;;;;;;4.87;4.37;;;8.80;99.90;;;;;;5138282;27;20465;-61
2023/01/03 09:20:17;;;;;;;7.60;3.50;;;8.80;99.90;;;;;;5137924;27;20548;-61
2023/01/03 09:22:46;;;;;;;5.67;4.17;;;8.80;99.90;;;;;;5137902;27;20472;-61
2023/01/03 09:25:13;;;;;;;5.10;4.13;;;8.90;99.90;;;;;;5137339;27;20857;-61
2023/01/03 09:27:45;;;;;;;4.10;3.70;;;8.90;99.90;;;;;;5137668;27;20517;-61
2023/01/03 09:30:13;;;;;;;5.87;3.87;;;9.00;99.90;;;;;;5137468;27;20472;-60
2023/01/03 09:32:40;;;;;;;7.63;3.93;;;9.10;99.90;;;;;;5137293;27;20476;-60
2023/01/03 09:35:08;;;;;;;4.67;3.80;;;9.10;99.90;;;;;;5137241;27;20452;-60
2023/01/03 09:37:34;;;;;;;6.70;3.80;;;9.10;99.90;;;;;;5136948;27;20822;-61
2023/01/03 09:40:03;;;;;;;4.80;3.90;;;9.20;99.90;;;;;;5137211;27;20464;-61
2023/01/03 09:45:17;;;;;;;8.40;4.70;;;9.20;99.90;;;;;;5137472;27;20534;-61
2023/01/03 09:47:45;;;;;;;8.20;3.70;;;9.30;99.90;;;;;;5137443;27;20795;-61
2023/01/03 09:50:19;;;;;;;2.80;2.30;;;9.40;99.90;;;;;;5137142;27;20436;-62
2023/01/03 10:04:18;;;;;;;6.77;3.07;;;9.70;99.90;;;;;;5136846;27;20507;-61
2023/01/03 10:06:56;;;;;;;5.73;2.13;;;9.80;99.90;;;;;;5136496;27;20976;-61
2023/01/03 10:09:32;;;;;;;2.83;2.10;;;9.80;99.90;;;;;;5137024;27;20466;-61
2023/01/03 10:12:11;;;;;;;10.30;3.13;;;9.90;99.90;;;;;;5136935;27;20488;-61
2023/01/03 10:14:51;;;;;;;6.80;3.77;;;10.10;99.90;;;;;;5136911;27;20433;-61
2023/01/03 10:17:25;;;;;;;13.87;3.30;;;10.20;99.90;;;;;;5136877;27;20438;-61
2023/01/03 10:20:26;;;;;;;7.67;2.57;;;10.20;99.90;;;;;;5135901;27;20967;-61
2023/01/03 10:22:56;;;;;;;4.73;2.53;;;10.30;99.90;;;;;;5136676;27;20473;-61
2023/01/03 10:25:24;;;;;;;4.83;2.87;;;10.30;99.90;;;;;;5136034;27;20485;-61
2023/01/03 10:27:55;;;;;;;5.67;2.60;;;10.40;99.90;;;;;;5136666;27;21007;-61
2023/01/03 10:30:33;;;;;;;6.77;3.40;;;10.50;99.90;;;;;;5128843;27;20437;-61
2023/01/03 10:33:26;;;;;;;9.50;2.47;;;10.60;99.90;;;;;;5131734;27;20453;-61
2023/01/03 10:35:53;;;;;;;2.10;1.77;;;10.60;99.90;;;;;;5115711;28;20440;-61
2023/01/03 10:38:21;;;;;;;5.10;2.40;;;10.80;99.90;;;;;;5107714;28;20428;-61
2023/01/03 10:40:51;;;;;;;3.33;1.40;;;10.90;99.90;;;;;;5115942;28;20566;-61
2023/01/03 10:43:26;;;;;;;8.53;2.40;;;11.00;99.90;;;;;;5115827;28;20439;-60
2023/01/03 10:45:56;;;;;;;6.00;2.00;;;11.10;99.90;;;;;;5114783;28;20852;-61
2023/01/03 10:48:24;;;;;;;6.40;2.03;;;11.20;99.90;;;;;;5115356;28;20442;-61
2023/01/03 10:50:52;;;;;;;4.63;1.97;;;11.30;99.90;;;;;;5115301;28;20426;-61
2023/01/03 10:53:21;;;;;;;2.90;1.70;;;11.20;99.20;;;;;;5115012;28;20898;-60
2023/01/03 10:55:51;;;;;;;4.23;1.30;;;11.30;99.30;;;;;;5115104;28;20798;-61
2023/01/03 10:58:23;;;;;;;6.13;1.60;;;11.20;99.20;;;;;;5115320;28;20437;-61
2023/01/03 11:00:52;;;;;;;6.10;1.63;;;11.30;99.30;;;;;;5115219;28;20432;-61
2023/01/03 11:03:21;;;;;;;5.43;1.40;;;11.20;99.40;;;;;;5115349;28;20470;-61
2023/01/03 11:06:05;;;;;;;4.00;1.60;;;11.10;98.90;;;;;;5114995;28;20993;-61
2023/01/03 11:08:41;;;;;;;6.40;1.60;;;11.00;99.60;;;;;;5115776;28;20437;-61
2023/01/03 11:11:26;;;;;;;3.80;1.27;;;10.90;99.30;;;;;;5115792;28;20477;-60
2023/01/03 11:14:15;;;;;;;3.63;1.40;;;10.70;98.60;;;;;;5115377;28;20430;-60
2023/01/03 11:16:42;;;;;;;5.13;1.23;;;10.70;98.90;;;;;;5115295;28;20436;-60
2023/01/03 11:19:18;;;;;;;4.27;1.27;;;10.60;98.70;;;;;;5115027;28;20439;-60
2023/01/03 11:21:51;;;;;;;2.77;1.23;;;10.50;99.10;;;;;;5114956;28;20474;-61
2023/01/03 11:24:30;;;;;;;1.57;1.33;;;10.40;99.20;;;;;;5114826;28;20474;-61
2023/01/03 11:27:05;;;;;;;3.13;1.20;;;10.40;99.10;;;;;;5115113;28;20464;-61
2023/01/03 11:29:46;;;;;;;5.27;1.30;;;10.40;99.10;;;;;;5114938;28;20446;-60
2023/01/03 11:32:24;;;;;;;6.70;1.20;;;10.50;99.00;;;;;;5114638;28;20474;-60
2023/01/03 11:35:12;;;;;;;6.17;1.57;;;10.50;99.00;;;;;;5114846;28;20428;-60
2023/01/03 11:37:51;;;;;;;2.60;1.20;;;10.60;99.00;;;;;;5114838;28;20847;-60
2023/01/03 11:40:25;;;;;;;3.37;1.00;;;10.60;98.80;;;;;;5114636;28;20459;-60
2023/01/03 11:43:04;;;;;;;8.10;1.53;;;10.60;98.90;;;;;;5114386;28;21002;-60
2023/01/03 11:45:52;;;;;;;2.73;0.90;;;10.70;98.20;;;;;;5114693;28;20475;-60
2023/01/03 11:48:34;;;;;;;6.47;1.70;;;10.80;98.20;;;;;;5111765;28;21002;-60
2023/01/03 11:51:13;;;;;;;2.30;1.20;;;10.90;98.20;;;;;;5114147;28;20462;-61
2023/01/03 11:53:55;;;;;;;5.23;1.10;;;11.00;98.20;;;;;;5114192;28;20434;-61
2023/01/03 11:56:28;;;;;;;3.63;1.27;;;11.10;97.80;;;;;;5113749;28;20437;-60
2023/01/03 11:59:41;;;;;;;2.97;1.30;;;11.20;97.40;;;;;;5113850;28;20499;-60
2023/01/03 12:02:46;;;;;;;5.90;1.10;;;11.30;97.10;;;;;;5114013;28;20478;-60
2023/01/03 12:05:38;;;;;;;4.37;1.10;;;11.40;96.60;;;;;;5088031;28;20487;-60
2023/01/03 12:08:21;;;;;;;5.93;1.50;;;11.30;96.20;;;;;;5111327;28;20466;-60
2023/01/03 12:10:54;;;;;;;9.10;1.53;;;11.50;96.20;;;;;;5113978;28;20445;-61
2023/01/03 12:13:30;;;;;;;6.23;1.57;;;11.50;95.70;;;;;;5113908;28;20454;-61
2023/01/03 12:16:03;;;;;;;2.33;1.00;;;11.50;95.70;;;;;;5113989;28;20514;-60
2023/01/03 12:18:42;;;;;;;4.47;1.00;;;11.60;95.30;;;;;;5114215;28;20439;-60
2023/01/03 12:21:13;;;;;;;2.20;0.77;;;11.70;94.90;;;;;;5114004;28;20475;-61
2023/01/03 12:23:43;;;;;;;5.50;0.90;;;11.80;94.50;;;;;;5113594;28;20432;-61
2023/01/03 12:26:13;;;;;;;1.77;0.70;;;12.20;93.00;;;;;;5113441;28;21020;-60
2023/01/03 12:28:41;;;;;;;3.10;1.30;;;12.60;92.90;;;;;;5114609;28;20464;-60
2023/01/03 12:31:18;;;;;;;5.20;1.17;;;13.00;90.70;;;;;;5113376;28;20991;-60
2023/01/03 12:33:53;;;;;;;2.00;0.73;;;13.30;90.20;;;;;;5113789;28;20455;-60
2023/01/03 12:36:40;;;;;;;2.87;0.83;;;13.60;89.00;;;;;;5113893;28;20439;-60
2023/01/03 12:39:28;;;;;;;1.30;0.90;;;13.70;84.60;;;;;;5113736;28;20830;-61
2023/01/03 12:42:00;;;;;;;1.37;1.00;;;13.80;83.80;;;;;;5114157;28;20475;-61
2023/01/03 12:44:33;;;;;;;2.90;0.80;;;13.70;82.90;;;;;;5114215;28;20474;-61
2023/01/03 12:47:01;;;;;;;2.90;0.90;;;13.80;82.50;;;;;;5113906;28;20806;-61
2023/01/03 12:49:35;;;;;;;3.50;0.80;;;13.80;81.50;;;;;;5113969;28;20839;-61
2023/01/03 12:52:02;;;;;;;3.73;1.40;;;13.50;82.10;;;;;;5113639;28;20980;-61
2023/01/03 12:54:39;;;;;;;2.30;0.87;;;13.30;83.70;;;;;;5114261;28;20427;-61
2023/01/03 12:57:41;;;;;;;2.40;0.80;;;13.20;85.10;;;;;;5114031;28;20423;-61
2023/01/03 13:00:25;;;;;;;4.03;1.40;;;13.00;85.10;;;;;;5104010;28;20588;-61
2023/01/03 13:02:54;;;;;;;2.57;0.93;;;12.60;85.80;;;;;;5113521;28;20474;-61
2023/01/03 13:05:28;;;;;;;5.50;1.13;;;12.50;87.40;;;;;;5106011;28;20489;-61
2023/01/03 13:08:04;;;;;;;2.10;0.73;;;12.50;88.00;;;;;;5113387;28;20907;-61
2023/01/03 13:10:35;;;;;;;3.00;0.90;;;12.50;88.60;;;;;;5117365;28;20442;-61
2023/01/03 13:13:02;;;;;;;5.43;1.27;;;12.60;89.50;;;;;;5117701;28;20842;-61
2023/01/03 13:15:31;;;;;;;2.30;0.90;;;12.50;89.80;;;;;;5117030;28;20833;-61
2023/01/03 13:18:30;;;;;;;2.03;0.80;;;12.50;90.10;;;;;;5117094;28;20946;-61
2023/01/03 13:20:58;;;;;;;4.97;1.60;;;12.30;89.50;;;;;;5117038;28;20481;-61
2023/01/03 13:23:45;;;;;;;2.40;1.00;;;12.30;90.10;;;;;;5117429;28;20427;-61
2023/01/03 13:26:24;;;;;;;4.73;2.07;;;12.10;90.10;;;;;;5115541;28;20491;-61
2023/01/03 13:28:52;;;;;;;3.03;1.30;;;12.10;90.40;;;;;;5117113;28;20937;-61
2023/01/03 13:32:02;;;;;;;1.97;1.20;;;12.00;90.60;;;;;;5116758;28;20479;-60
2023/01/03 13:34:34;;;;;;;1.23;0.77;;;11.80;90.40;;;;;;5117338;28;20457;-60
2023/01/03 13:37:23;;;;;;;1.83;0.67;;;11.80;90.50;;;;;;5117143;28;20429;-61
2023/01/03 13:40:27;;;;;;;2.37;0.80;;;11.80;90.60;;;;;;5110795;28;20466;-61
2023/01/03 13:43:13;;;;;;;1.97;0.93;;;11.70;90.80;;;;;;5113902;28;20515;-61
2023/01/03 13:45:59;;;;;;;0.80;0.80;;;11.70;90.90;;;;;;5117138;28;20509;-61
2023/01/03 13:48:40;;;;;;;2.23;0.67;;;11.70;91.00;;;;;;5117550;28;20427;-60
2023/01/03 13:51:37;;;;;;;1.77;0.70;;;11.70;91.20;;;;;;5117511;28;20459;-61
2023/01/03 13:54:25;;;;;;;1.83;0.77;;;11.70;91.00;;;;;;5117648;28;20450;-61
2023/01/03 13:57:02;;;;;;;4.23;0.80;;;11.60;90.90;;;;;;5118119;28;20435;-61
2023/01/03 13:59:35;;;;;;;3.60;1.13;;;11.60;91.30;;;;;;5117619;28;20433;-61
2023/01/03 14:02:38;;;;;;;1.43;0.53;;;11.60;91.50;;;;;;5118122;28;20493;-61
2023/01/03 14:05:26;;;;;;;1.10;0.63;;;11.70;91.50;;;;;;5118566;28;20522;-61
2023/01/03 14:08:11;;;;;;;4.33;0.80;;;11.70;91.60;;;;;;5108170;28;20451;-61
2023/01/03 14:11:03;;;;;;;3.23;0.80;;;11.80;91.50;;;;;;5116620;28;20489;-61